Van Buren, Washington
Current Conditions -  °F | °C
As of 2:00 AM on Saturday 25 Oct 2014 (Local Time) from CYXX Reporting Station
Light Rain Light Rain  
Wind Chill:   Ceiling: 4000
Heat Index:   Visibility: 8mi
Dew Point:   Wind: 7mph
Humidity: 93%   Direction: 30°NNE
Pressure: 29.74"   Gusts: NA
Location:  48.9068°N, 122.295°W
Report Text: CYXX 250900Z 03006KT 8SM -RA OVC040 09/08 A2974 RMK SC8 PRESFR SLP072
Loading
Personal Weather Stations






























Interactive Weather Map
Tropical Storm Tracking
New forecast layout! Learn more

10-Day Weather Forecast

Advertisements
Track Severe Weather on mobile